Time;durP1;ratioP1;P1;durP2;ratioP2;P2;SDS_P1;SDS_P2;PMS_P1;PMS_P2;Temp;Humidity;BMP_temperature;BMP_pressure;BME280_temperature;BME280_humidity;BME280_pressure;Samples;Min_cycle;Max_cycle;Signal;HPM_P1;HPM_P2
2022/07/24 07:47:57;;;;;;;0.10;0.10;;;;;;;;;;5079249;28;20377;-80
2022/07/24 07:50:23;;;;;;;0.10;0.10;;;;;;;;;;5084477;28;20419;-78
2022/07/24 07:52:49;;;;;;;0.20;0.20;;;;;;;;;;5079578;28;20822;-80
2022/07/24 07:55:15;;;;;;;0.20;0.20;;;;;;;;;;5081910;28;20950;-81
2022/07/24 07:57:43;;;;;;;0.20;0.20;;;;;;;;;;5080023;28;20479;-78
2022/07/24 08:00:10;;;;;;;0.10;0.10;;;;;;;;;;5079025;28;20454;-77
2022/07/24 08:02:36;;;;;;;0.10;0.10;;;;;;;;;;5067510;28;20419;-79
2022/07/24 08:05:02;;;;;;;0.10;0.10;;;;;;;;;;5084045;28;20952;-79
2022/07/24 08:07:28;;;;;;;0.10;0.10;;;;;;;;;;5084905;28;21199;-79
2022/07/24 08:09:54;;;;;;;0.10;0.10;;;;;;;;;;5086319;28;20425;-77
2022/07/24 08:12:20;;;;;;;0.15;0.15;;;;;;;;;;5073553;28;20420;-78
2022/07/24 08:14:46;;;;;;;0.10;0.10;;;;;;;;;;5080469;28;20470;-80
2022/07/24 08:17:12;;;;;;;0.10;0.10;;;;;;;;;;5076459;28;20415;-79
2022/07/24 08:19:38;;;;;;;0.20;0.20;;;;;;;;;;5081789;28;20458;-80
2022/07/24 08:22:04;;;;;;;0.10;0.10;;;;;;;;;;5079437;28;20414;-79
2022/07/24 08:24:32;;;;;;;0.20;0.20;;;;;;;;;;5067358;28;20426;-81
2022/07/24 08:26:58;;;;;;;0.10;0.10;;;;;;;;;;5076086;28;22366;-83
2022/07/24 08:29:24;;;;;;;0.20;0.20;;;;;;;;;;5075328;28;20835;-79
2022/07/24 08:31:51;;;;;;;0.10;0.10;;;;;;;;;;5075789;28;20426;-79
2022/07/24 08:34:17;;;;;;;0.10;0.10;;;;;;;;;;5078518;28;20449;-78
2022/07/24 08:36:45;;;;;;;0.10;0.10;;;;;;;;;;5083730;28;20407;-75
2022/07/24 08:39:12;;;;;;;0.70;0.50;;;;;;;;;;5086452;28;20419;-75
2022/07/24 08:41:38;;;;;;;0.10;0.10;;;;;;;;;;5083329;28;20411;-79
2022/07/24 08:44:05;;;;;;;0.20;0.20;;;;;;;;;;5084283;28;20429;-77
2022/07/24 08:46:32;;;;;;;0.10;0.10;;;;;;;;;;5090093;28;20437;-75
2022/07/24 08:48:58;;;;;;;0.20;0.20;;;;;;;;;;5102611;28;20457;-75
2022/07/24 08:51:30;;;;;;;0.10;0.10;;;;;;;;;;5104389;28;20968;-75
2022/07/24 08:53:57;;;;;;;0.40;0.20;;;;;;;;;;5101123;28;20413;-80
2022/07/24 08:56:23;;;;;;;0.10;0.10;;;;;;;;;;5108160;28;20787;-75
2022/07/24 08:58:49;;;;;;;0.10;0.10;;;;;;;;;;5086328;28;20863;-78
2022/07/24 09:01:15;;;;;;;0.30;0.30;;;;;;;;;;5091010;28;20515;-74
2022/07/24 09:03:45;;;;;;;0.10;0.10;;;;;;;;;;5088138;28;20769;-76
2022/07/24 09:06:12;;;;;;;0.10;0.10;;;;;;;;;;5075527;28;20433;-76
2022/07/24 09:08:39;;;;;;;0.17;0.17;;;;;;;;;;5081373;28;20910;-76
2022/07/24 09:11:06;;;;;;;0.20;0.20;;;;;;;;;;5087086;28;20413;-77
2022/07/24 09:16:23;;;;;;;0.10;0.10;;;;;;;;;;5084960;28;20416;-75
2022/07/24 09:19:09;;;;;;;0.10;0.10;;;;;;;;;;5080074;28;20935;-75
2022/07/24 09:21:38;;;;;;;0.10;0.10;;;;;;;;;;5079264;28;20496;-79
2022/07/24 09:24:14;;;;;;;0.10;0.10;;;;;;;;;;5088294;28;20413;-76
2022/07/24 09:26:50;;;;;;;0.28;0.28;;;;;;;;;;5077492;28;20444;-76
2022/07/24 09:29:16;;;;;;;0.20;0.20;;;;;;;;;;5087645;28;20414;-74
2022/07/24 09:31:56;;;;;;;0.10;0.10;;;;;;;;;;5087795;28;20418;-75
2022/07/24 09:34:23;;;;;;;0.10;0.10;;;;;;;;;;5084103;28;20497;-76
2022/07/24 09:36:59;;;;;;;0.20;0.15;;;;;;;;;;5088446;28;20421;-74
2022/07/24 09:39:25;;;;;;;0.60;0.30;;;;;;;;;;5053860;28;20754;-75
2022/07/24 09:41:52;;;;;;;0.20;0.20;;;;;;;;;;5089849;28;20489;-76
2022/07/24 09:44:18;;;;;;;0.10;0.10;;;;;;;;;;5090382;28;20443;-74
2022/07/24 09:46:49;;;;;;;0.20;0.20;;;;;;;;;;5080549;28;20463;-74
2022/07/24 09:49:21;;;;;;;0.10;0.10;;;;;;;;;;5089699;28;20425;-77
2022/07/24 09:52:06;;;;;;;0.45;0.40;;;;;;;;;;5084074;28;20496;-74
2022/07/24 09:54:51;;;;;;;0.20;0.20;;;;;;;;;;5081326;28;20434;-75
2022/07/24 09:57:18;;;;;;;0.40;0.40;;;;;;;;;;5083889;28;20417;-73
2022/07/24 09:59:48;;;;;;;0.20;0.13;;;;;;;;;;5089253;28;20453;-73
2022/07/24 10:02:16;;;;;;;0.10;0.10;;;;;;;;;;5071952;28;20496;-73
2022/07/24 10:04:43;;;;;;;0.20;0.20;;;;;;;;;;5082901;28;20435;-76
2022/07/24 10:07:13;;;;;;;0.30;0.30;;;;;;;;;;5083481;28;20839;-76
2022/07/24 10:09:41;;;;;;;0.10;0.10;;;;;;;;;;5084880;28;20448;-75
2022/07/24 10:12:11;;;;;;;0.40;0.20;;;;;;;;;;5078134;28;20519;-75
2022/07/24 10:14:40;;;;;;;0.10;0.10;;;;;;;;;;5082689;28;20426;-75
2022/07/24 10:17:11;;;;;;;0.10;0.10;;;;;;;;;;5084489;28;20419;-76
2022/07/24 10:19:40;;;;;;;0.10;0.10;;;;;;;;;;5078544;28;20433;-76
2022/07/24 10:22:10;;;;;;;0.10;0.10;;;;;;;;;;5060976;28;20435;-74
2022/07/24 10:24:52;;;;;;;0.10;0.10;;;;;;;;;;5080959;28;20419;-76
2022/07/24 10:27:44;;;;;;;0.10;0.10;;;;;;;;;;5077515;28;20426;-75
2022/07/24 10:30:11;;;;;;;1.70;0.40;;;;;;;;;;5072797;28;20426;-80
2022/07/24 10:32:38;;;;;;;0.10;0.10;;;;;;;;;;5078673;28;20441;-80
2022/07/24 10:35:07;;;;;;;0.10;0.10;;;;;;;;;;5077707;28;20418;-77
2022/07/24 10:37:42;;;;;;;0.10;0.10;;;;;;;;;;5074813;28;20421;-76
2022/07/24 10:40:11;;;;;;;0.10;0.10;;;;;;;;;;5066735;28;20763;-78
2022/07/24 10:42:56;;;;;;;0.30;0.30;;;;;;;;;;5077292;28;20450;-76
2022/07/24 10:45:23;;;;;;;0.10;0.10;;;;;;;;;;5081256;28;20795;-77
2022/07/24 10:47:55;;;;;;;0.20;0.20;;;;;;;;;;5079491;28;20437;-78
2022/07/24 10:50:22;;;;;;;0.20;0.20;;;;;;;;;;5074579;28;21998;-79
2022/07/24 10:52:48;;;;;;;0.10;0.10;;;;;;;;;;5077185;28;20771;-79
2022/07/24 10:55:20;;;;;;;0.10;0.10;;;;;;;;;;5081388;28;20438;-78
2022/07/24 10:57:54;;;;;;;0.20;0.20;;;;;;;;;;5081032;28;20426;-80
2022/07/24 11:00:25;;;;;;;0.10;0.10;;;;;;;;;;5077599;28;20416;-77
2022/07/24 11:03:05;;;;;;;0.17;0.17;;;;;;;;;;5079062;28;20433;-78
2022/07/24 11:05:32;;;;;;;0.10;0.10;;;;;;;;;;5058815;28;20504;-75
2022/07/24 11:08:17;;;;;;;0.15;0.15;;;;;;;;;;5078250;28;20424;-79
2022/07/24 11:10:53;;;;;;;0.10;0.10;;;;;;;;;;5081403;28;20421;-77
2022/07/24 11:13:32;;;;;;;0.20;0.20;;;;;;;;;;5066565;28;20855;-78
2022/07/24 11:16:10;;;;;;;0.80;0.50;;;;;;;;;;5080953;28;20441;-79
2022/07/24 11:18:40;;;;;;;0.10;0.10;;;;;;;;;;5074659;28;20419;-76
2022/07/24 11:21:06;;;;;;;0.20;0.20;;;;;;;;;;5081512;28;20421;-76
2022/07/24 11:23:32;;;;;;;0.60;0.30;;;;;;;;;;5081503;28;20432;-76
2022/07/24 11:26:20;;;;;;;0.17;0.17;;;;;;;;;;5060899;28;20757;-77
2022/07/24 11:29:05;;;;;;;0.10;0.10;;;;;;;;;;5082940;28;20484;-75
2022/07/24 11:31:32;;;;;;;0.13;0.13;;;;;;;;;;5080526;28;20901;-74
2022/07/24 11:34:00;;;;;;;0.10;0.10;;;;;;;;;;5077060;28;20780;-78
2022/07/24 11:36:26;;;;;;;0.20;0.20;;;;;;;;;;5082717;28;20417;-76
2022/07/24 11:38:52;;;;;;;0.10;0.10;;;;;;;;;;5080539;28;20479;-76
2022/07/24 11:41:18;;;;;;;0.10;0.10;;;;;;;;;;5086321;28;20413;-76
2022/07/24 11:43:53;;;;;;;0.30;0.20;;;;;;;;;;5073880;28;20454;-74
2022/07/24 11:46:36;;;;;;;0.10;0.10;;;;;;;;;;5074740;28;20471;-78
2022/07/24 11:49:06;;;;;;;0.20;0.20;;;;;;;;;;5076744;28;20429;-76
2022/07/24 11:51:33;;;;;;;0.20;0.20;;;;;;;;;;5080670;28;20422;-74
2022/07/24 11:54:01;;;;;;;0.20;0.20;;;;;;;;;;5080217;28;20539;-75
2022/07/24 11:56:30;;;;;;;0.10;0.10;;;;;;;;;;5075727;28;20426;-75
2022/07/24 11:58:56;;;;;;;0.10;0.10;;;;;;;;;;5080244;28;20417;-75
2022/07/24 12:01:23;;;;;;;0.10;0.10;;;;;;;;;;5083783;28;20449;-75
2022/07/24 12:03:52;;;;;;;0.10;0.10;;;;;;;;;;5079052;28;20426;-75
2022/07/24 12:06:19;;;;;;;0.20;0.10;;;;;;;;;;5081449;28;20430;-75
2022/07/24 12:08:45;;;;;;;0.10;0.10;;;;;;;;;;5077840;28;20418;-75
2022/07/24 12:11:11;;;;;;;0.10;0.10;;;;;;;;;;5079147;28;20441;-75
2022/07/24 12:13:42;;;;;;;0.10;0.10;;;;;;;;;;5081159;28;21021;-75
2022/07/24 12:16:08;;;;;;;0.10;0.10;;;;;;;;;;5077578;28;20418;-75
2022/07/24 12:18:34;;;;;;;0.10;0.10;;;;;;;;;;5079126;28;20424;-75
2022/07/24 12:21:01;;;;;;;0.10;0.10;;;;;;;;;;5078501;28;20423;-76
2022/07/24 12:23:31;;;;;;;0.52;0.22;;;;;;;;;;5070214;28;20974;-76
2022/07/24 12:25:57;;;;;;;0.70;0.50;;;;;;;;;;5069679;28;20412;-77
2022/07/24 12:28:23;;;;;;;0.30;0.30;;;;;;;;;;5072803;28;20428;-78
2022/07/24 12:30:50;;;;;;;0.10;0.10;;;;;;;;;;5070658;28;20503;-81
2022/07/24 12:33:19;;;;;;;0.20;0.20;;;;;;;;;;5074901;28;20909;-77
2022/07/24 12:35:55;;;;;;;0.38;0.28;;;;;;;;;;5086668;28;20426;-75
2022/07/24 12:38:28;;;;;;;0.10;0.10;;;;;;;;;;5101883;28;20424;-74
2022/07/24 12:41:03;;;;;;;0.10;0.10;;;;;;;;;;5086253;28;20507;-76
2022/07/24 12:43:29;;;;;;;0.10;0.10;;;;;;;;;;5080305;28;20432;-84
2022/07/24 12:46:08;;;;;;;0.10;0.10;;;;;;;;;;5082135;28;20455;-83
2022/07/24 12:48:34;;;;;;;0.10;0.10;;;;;;;;;;5076570;28;20761;-82
2022/07/24 12:51:00;;;;;;;0.20;0.20;;;;;;;;;;5076332;28;20423;-81
2022/07/24 12:53:28;;;;;;;0.10;0.10;;;;;;;;;;5084020;28;20900;-79
2022/07/24 12:56:10;;;;;;;0.13;0.13;;;;;;;;;;5094642;28;20423;-84
2022/07/24 12:58:48;;;;;;;0.10;0.10;;;;;;;;;;5069485;28;20451;-83
2022/07/24 13:01:14;;;;;;;0.20;0.20;;;;;;;;;;5067574;28;20422;-85
2022/07/24 13:03:41;;;;;;;0.60;0.40;;;;;;;;;;5064299;28;20426;-86
2022/07/24 13:06:07;;;;;;;0.10;0.10;;;;;;;;;;5064609;28;20435;-86
2022/07/24 13:08:33;;;;;;;0.10;0.10;;;;;;;;;;5059356;28;20899;-88
2022/07/24 13:10:59;;;;;;;0.20;0.20;;;;;;;;;;5080176;28;20941;-87
2022/07/24 13:13:25;;;;;;;0.10;0.10;;;;;;;;;;5071931;28;20419;-85
2022/07/24 13:15:51;;;;;;;0.20;0.10;;;;;;;;;;5062097;28;20408;-87
2022/07/24 13:18:17;;;;;;;0.20;0.20;;;;;;;;;;5056125;28;20395;-85
2022/07/24 13:20:43;;;;;;;0.20;0.20;;;;;;;;;;5082624;28;20462;-85
2022/07/24 13:23:09;;;;;;;0.10;0.10;;;;;;;;;;5085449;28;20762;-86
2022/07/24 13:25:35;;;;;;;0.10;0.10;;;;;;;;;;5059533;28;20949;-88
2022/07/24 13:28:01;;;;;;;0.10;0.10;;;;;;;;;;5064283;28;20496;-88
2022/07/24 13:30:27;;;;;;;0.10;0.10;;;;;;;;;;5050494;28;20432;-87
2022/07/24 13:32:53;;;;;;;0.30;0.30;;;;;;;;;;5055071;28;20430;-83
2022/07/24 13:35:19;;;;;;;0.28;0.28;;;;;;;;;;5072259;28;20509;-86
2022/07/24 13:37:45;;;;;;;0.10;0.10;;;;;;;;;;5056623;28;20866;-85
2022/07/24 13:40:13;;;;;;;0.20;0.10;;;;;;;;;;5073291;28;20881;-86
2022/07/24 13:42:40;;;;;;;0.10;0.10;;;;;;;;;;5055884;28;20810;-85
2022/07/24 13:45:06;;;;;;;0.30;0.30;;;;;;;;;;5047298;28;20431;-85
2022/07/24 13:47:33;;;;;;;0.10;0.10;;;;;;;;;;5083117;28;20423;-88
2022/07/24 13:49:59;;;;;;;0.10;0.10;;;;;;;;;;5054687;28;20400;-87
2022/07/24 13:52:25;;;;;;;0.10;0.10;;;;;;;;;;5077218;28;20418;-87
2022/07/24 13:54:51;;;;;;;0.10;0.10;;;;;;;;;;5068665;28;20498;-88
2022/07/24 13:57:17;;;;;;;0.10;0.10;;;;;;;;;;5072344;28;20431;-86
2022/07/24 13:59:43;;;;;;;0.28;0.28;;;;;;;;;;5075644;28;20429;-87
2022/07/24 14:02:09;;;;;;;0.20;0.20;;;;;;;;;;5055326;28;20415;-87
2022/07/24 14:04:35;;;;;;;0.10;0.10;;;;;;;;;;5074737;28;20456;-87
2022/07/24 14:07:01;;;;;;;0.10;0.10;;;;;;;;;;5072149;28;20430;-87
2022/07/24 14:09:28;;;;;;;0.10;0.10;;;;;;;;;;5055206;28;20502;-86
2022/07/24 14:11:55;;;;;;;0.10;0.10;;;;;;;;;;5072609;28;20496;-84
2022/07/24 14:14:21;;;;;;;0.10;0.10;;;;;;;;;;5055359;28;20936;-86
2022/07/24 14:16:47;;;;;;;0.10;0.10;;;;;;;;;;5073017;28;20519;-87
2022/07/24 14:19:13;;;;;;;0.10;0.10;;;;;;;;;;5055045;28;20750;-88
2022/07/24 14:21:39;;;;;;;0.22;0.15;;;;;;;;;;5072728;28;20400;-88
2022/07/24 14:24:05;;;;;;;0.20;0.20;;;;;;;;;;5066888;28;20772;-88
2022/07/24 14:26:31;;;;;;;0.20;0.20;;;;;;;;;;5079663;28;20419;-88
2022/07/24 14:28:57;;;;;;;0.10;0.10;;;;;;;;;;5058016;28;20419;-88
2022/07/24 14:31:23;;;;;;;0.25;0.25;;;;;;;;;;5067749;28;20531;-88
2022/07/24 14:33:49;;;;;;;0.17;0.15;;;;;;;;;;5074659;28;20495;-90
2022/07/24 14:36:15;;;;;;;0.45;0.25;;;;;;;;;;5059521;28;20510;-88
2022/07/24 14:38:42;;;;;;;0.10;0.10;;;;;;;;;;5054480;28;20416;-87
2022/07/24 14:41:08;;;;;;;0.10;0.10;;;;;;;;;;5054703;28;20407;-89
2022/07/24 14:43:34;;;;;;;0.10;0.10;;;;;;;;;;5055972;28;20492;-88
2022/07/24 14:46:00;;;;;;;0.10;0.10;;;;;;;;;;5053178;28;20422;-88
2022/07/24 14:48:26;;;;;;;0.10;0.10;;;;;;;;;;5054072;28;20793;-89
2022/07/24 14:50:52;;;;;;;0.30;0.30;;;;;;;;;;5073417;28;20429;-90
2022/07/24 14:53:18;;;;;;;0.10;0.10;;;;;;;;;;5056097;28;20424;-87
2022/07/24 14:55:44;;;;;;;0.10;0.10;;;;;;;;;;5059809;28;20455;-85
2022/07/24 14:58:10;;;;;;;1.80;0.50;;;;;;;;;;5054511;28;20403;-89
2022/07/24 15:00:36;;;;;;;0.10;0.10;;;;;;;;;;5070114;28;20795;-87
2022/07/24 15:03:02;;;;;;;0.10;0.10;;;;;;;;;;5054404;28;20455;-91
2022/07/24 15:05:28;;;;;;;0.10;0.10;;;;;;;;;;5074417;28;20402;-92
2022/07/24 15:07:54;;;;;;;0.10;0.10;;;;;;;;;;5061340;28;20423;-88
2022/07/24 15:10:20;;;;;;;0.10;0.10;;;;;;;;;;5053858;28;20504;-88
2022/07/24 15:12:46;;;;;;;0.10;0.10;;;;;;;;;;5053937;28;20435;-86
2022/07/24 15:15:13;;;;;;;0.13;0.10;;;;;;;;;;5060526;28;20415;-87
2022/07/24 15:17:39;;;;;;;0.50;0.30;;;;;;;;;;5082089;28;20915;-87
2022/07/24 15:20:05;;;;;;;0.10;0.10;;;;;;;;;;5053113;28;20468;-87
2022/07/24 15:22:31;;;;;;;0.10;0.10;;;;;;;;;;5056233;28;20854;-89
2022/07/24 15:24:57;;;;;;;0.15;0.15;;;;;;;;;;5068082;28;20901;-88
2022/07/24 15:27:23;;;;;;;0.20;0.20;;;;;;;;;;5053750;28;20565;-87
2022/07/24 15:29:49;;;;;;;0.10;0.10;;;;;;;;;;5084470;28;20496;-87
2022/07/24 15:32:15;;;;;;;0.10;0.10;;;;;;;;;;5060041;28;20896;-86
2022/07/24 15:34:41;;;;;;;0.20;0.20;;;;;;;;;;5054427;28;20428;-87
2022/07/24 15:37:07;;;;;;;0.30;0.20;;;;;;;;;;5053495;28;20473;-87
2022/07/24 15:39:33;;;;;;;0.10;0.10;;;;;;;;;;5052949;28;20567;-89
2022/07/24 15:42:00;;;;;;;0.30;0.30;;;;;;;;;;5055948;28;20905;-90
2022/07/24 15:44:26;;;;;;;0.10;0.10;;;;;;;;;;5053221;28;20493;-85
2022/07/24 15:46:52;;;;;;;0.10;0.10;;;;;;;;;;5062740;28;20424;-91
2022/07/24 15:49:18;;;;;;;0.10;0.10;;;;;;;;;;5069378;28;20421;-87
2022/07/24 15:51:44;;;;;;;0.20;0.20;;;;;;;;;;5064841;28;20442;-87
2022/07/24 15:54:10;;;;;;;0.10;0.10;;;;;;;;;;5052291;28;20436;-88
2022/07/24 15:56:36;;;;;;;0.10;0.10;;;;;;;;;;5053336;28;20419;-88
2022/07/24 15:59:02;;;;;;;0.10;0.10;;;;;;;;;;5057442;28;20478;-88
2022/07/24 16:01:28;;;;;;;0.20;0.20;;;;;;;;;;5072123;28;20417;-89
2022/07/24 16:03:55;;;;;;;0.20;0.20;;;;;;;;;;5065587;28;20415;-89
2022/07/24 16:06:21;;;;;;;0.10;0.10;;;;;;;;;;5053114;28;20428;-88
2022/07/24 16:08:47;;;;;;;0.70;0.20;;;;;;;;;;5055596;28;20527;-89
2022/07/24 16:11:13;;;;;;;0.10;0.10;;;;;;;;;;5072262;28;20421;-86
2022/07/24 16:13:39;;;;;;;0.10;0.10;;;;;;;;;;5063474;28;20486;-87
2022/07/24 16:16:05;;;;;;;0.10;0.10;;;;;;;;;;5085654;28;20900;-88
2022/07/24 16:18:34;;;;;;;0.10;0.10;;;;;;;;;;5057008;28;20476;-89
2022/07/24 16:21:01;;;;;;;0.25;0.25;;;;;;;;;;5063711;28;20991;-88
2022/07/24 16:23:27;;;;;;;0.10;0.10;;;;;;;;;;5056807;28;20762;-89
2022/07/24 16:25:53;;;;;;;0.10;0.10;;;;;;;;;;5056984;28;20502;-89
2022/07/24 16:28:19;;;;;;;0.10;0.10;;;;;;;;;;5057425;28;20473;-87
2022/07/24 16:30:45;;;;;;;0.10;0.10;;;;;;;;;;5060474;28;20418;-89
2022/07/24 16:33:11;;;;;;;0.10;0.10;;;;;;;;;;5068064;28;20748;-86
2022/07/24 16:35:37;;;;;;;0.10;0.10;;;;;;;;;;5063935;28;20915;-88
2022/07/24 16:38:03;;;;;;;0.10;0.10;;;;;;;;;;5072297;28;20907;-88
2022/07/24 16:40:29;;;;;;;0.20;0.20;;;;;;;;;;5047211;28;20415;-88
2022/07/24 16:42:55;;;;;;;0.10;0.10;;;;;;;;;;5067657;28;20445;-81
2022/07/24 16:45:21;;;;;;;0.10;0.10;;;;;;;;;;5089213;28;20744;-87
2022/07/24 16:47:47;;;;;;;0.10;0.10;;;;;;;;;;5087302;28;20427;-89
2022/07/24 16:50:13;;;;;;;0.10;0.10;;;;;;;;;;5059573;28;20935;-87
2022/07/24 16:52:40;;;;;;;0.10;0.10;;;;;;;;;;5063530;28;20532;-89
2022/07/24 16:55:06;;;;;;;0.10;0.10;;;;;;;;;;5056241;28;20416;-85
2022/07/24 16:57:32;;;;;;;0.10;0.10;;;;;;;;;;5056484;28;20423;-89
2022/07/24 16:59:58;;;;;;;0.10;0.10;;;;;;;;;;5065686;28;20421;-88
2022/07/24 17:02:24;;;;;;;0.10;0.10;;;;;;;;;;5078088;28;20432;-85
2022/07/24 17:04:50;;;;;;;0.10;0.10;;;;;;;;;;5087309;28;20471;-87
2022/07/24 17:07:16;;;;;;;0.10;0.10;;;;;;;;;;5085453;28;20417;-87
2022/07/24 17:09:42;;;;;;;0.20;0.20;;;;;;;;;;5073656;28;20417;-87
2022/07/24 17:12:09;;;;;;;0.10;0.10;;;;;;;;;;5082600;28;20494;-87
2022/07/24 17:14:35;;;;;;;0.20;0.20;;;;;;;;;;5059666;28;20434;-86
2022/07/24 17:17:01;;;;;;;0.10;0.10;;;;;;;;;;5071532;28;20430;-87
2022/07/24 17:19:30;;;;;;;0.10;0.10;;;;;;;;;;5043630;28;20427;-89
2022/07/24 17:22:00;;;;;;;0.10;0.10;;;;;;;;;;5083843;28;20518;-89
2022/07/24 17:24:27;;;;;;;0.10;0.10;;;;;;;;;;5061864;28;20481;-87
2022/07/24 17:26:53;;;;;;;1.10;0.20;;;;;;;;;;5055465;28;20419;-88
2022/07/24 17:29:19;;;;;;;0.10;0.10;;;;;;;;;;5066559;28;21098;-86
2022/07/24 17:31:45;;;;;;;0.10;0.10;;;;;;;;;;5062254;28;20505;-88
2022/07/24 17:34:11;;;;;;;0.10;0.10;;;;;;;;;;5068081;28;20445;-87
2022/07/24 17:36:37;;;;;;;0.10;0.10;;;;;;;;;;5067405;28;20430;-87
2022/07/24 17:39:03;;;;;;;0.10;0.10;;;;;;;;;;5072922;28;20512;-87
2022/07/24 17:41:29;;;;;;;0.10;0.10;;;;;;;;;;5066834;28;20970;-87
2022/07/24 17:43:55;;;;;;;0.10;0.10;;;;;;;;;;5062066;28;20418;-89
2022/07/24 17:46:21;;;;;;;0.10;0.10;;;;;;;;;;5069471;28;20437;-86
2022/07/24 17:48:47;;;;;;;0.10;0.10;;;;;;;;;;5092299;28;20497;-88
2022/07/24 17:51:13;;;;;;;0.10;0.10;;;;;;;;;;5062345;28;20419;-87
2022/07/24 17:53:39;;;;;;;0.30;0.20;;;;;;;;;;5065951;28;20423;-88
2022/07/24 17:56:06;;;;;;;0.10;0.10;;;;;;;;;;5055938;28;20419;-88
2022/07/24 17:58:32;;;;;;;0.10;0.10;;;;;;;;;;5061795;28;20430;-89
2022/07/24 18:00:58;;;;;;;0.10;0.10;;;;;;;;;;5062544;28;20939;-89
2022/07/24 18:03:24;;;;;;;0.10;0.10;;;;;;;;;;5079942;28;20482;-88
2022/07/24 18:05:50;;;;;;;0.10;0.10;;;;;;;;;;5058783;28;20754;-88
2022/07/24 18:08:16;;;;;;;0.10;0.10;;;;;;;;;;5071011;28;20911;-88
2022/07/24 18:10:42;;;;;;;0.10;0.10;;;;;;;;;;5068161;28;20950;-87
2022/07/24 18:13:08;;;;;;;0.10;0.10;;;;;;;;;;5066131;28;20449;-86
2022/07/24 18:15:34;;;;;;;0.00;0.00;;;;;;;;;;5076717;28;20447;-87
2022/07/24 18:18:00;;;;;;;0.22;0.20;;;;;;;;;;5062343;28;20426;-87
2022/07/24 18:20:26;;;;;;;0.10;0.10;;;;;;;;;;5067371;28;20427;-87
2022/07/24 18:22:52;;;;;;;0.10;0.10;;;;;;;;;;5054865;28;20407;-88
2022/07/24 18:25:18;;;;;;;0.10;0.10;;;;;;;;;;5060840;28;20421;-87
2022/07/24 18:27:45;;;;;;;0.10;0.10;;;;;;;;;;5076390;28;20479;-87
2022/07/24 18:30:11;;;;;;;0.10;0.10;;;;;;;;;;5058838;28;20435;-87
2022/07/24 18:32:37;;;;;;;0.10;0.10;;;;;;;;;;5072570;28;20415;-88
2022/07/24 18:35:03;;;;;;;0.10;0.10;;;;;;;;;;5076012;28;20422;-88
2022/07/24 18:37:30;;;;;;;0.10;0.10;;;;;;;;;;5078366;28;20411;-89
2022/07/24 18:39:56;;;;;;;0.10;0.10;;;;;;;;;;5067617;28;20426;-88
2022/07/24 18:42:22;;;;;;;0.10;0.10;;;;;;;;;;5053775;28;20889;-88
2022/07/24 18:44:48;;;;;;;0.10;0.10;;;;;;;;;;5053888;28;20419;-86
2022/07/24 18:47:14;;;;;;;0.10;0.10;;;;;;;;;;5070337;28;20497;-87
2022/07/24 18:49:40;;;;;;;0.10;0.10;;;;;;;;;;5089126;28;20418;-85
2022/07/24 18:52:06;;;;;;;0.10;0.10;;;;;;;;;;5062108;28;20962;-90
2022/07/24 18:54:32;;;;;;;0.20;0.20;;;;;;;;;;5053927;28;20491;-89
2022/07/24 18:56:59;;;;;;;0.10;0.10;;;;;;;;;;5081668;28;20417;-90
2022/07/24 18:59:25;;;;;;;0.10;0.10;;;;;;;;;;5053248;28;20455;-87
2022/07/24 19:01:51;;;;;;;0.10;0.10;;;;;;;;;;5054105;28;20897;-88
2022/07/24 19:04:17;;;;;;;0.10;0.10;;;;;;;;;;5053920;28;20907;-88
2022/07/24 19:06:43;;;;;;;0.13;0.13;;;;;;;;;;5063081;28;20928;-88
2022/07/24 19:09:09;;;;;;;0.10;0.10;;;;;;;;;;5078283;28;20419;-83
2022/07/24 19:11:36;;;;;;;0.10;0.10;;;;;;;;;;5082160;28;20413;-86
2022/07/24 19:14:02;;;;;;;0.10;0.10;;;;;;;;;;5080478;28;20698;-87
2022/07/24 19:16:28;;;;;;;0.10;0.10;;;;;;;;;;5089721;28;20441;-87
2022/07/24 19:18:55;;;;;;;0.10;0.10;;;;;;;;;;5070051;28;20468;-88
2022/07/24 19:21:21;;;;;;;0.10;0.10;;;;;;;;;;5053430;28;20419;-87
2022/07/24 19:23:47;;;;;;;0.10;0.10;;;;;;;;;;5057289;28;20506;-86
2022/07/24 19:26:13;;;;;;;0.10;0.10;;;;;;;;;;5053272;28;20727;-86
2022/07/24 19:28:40;;;;;;;0.10;0.10;;;;;;;;;;5055417;28;20423;-85
2022/07/24 19:31:07;;;;;;;0.10;0.10;;;;;;;;;;5074276;28;20441;-86
2022/07/24 19:33:33;;;;;;;0.20;0.20;;;;;;;;;;5055540;28;20432;-89
2022/07/24 19:35:59;;;;;;;0.10;0.10;;;;;;;;;;5053422;28;20427;-89
2022/07/24 19:38:25;;;;;;;0.10;0.10;;;;;;;;;;5053591;28;20498;-88
2022/07/24 19:40:52;;;;;;;0.30;0.20;;;;;;;;;;5085060;28;20409;-88
2022/07/24 19:43:18;;;;;;;0.10;0.10;;;;;;;;;;5071850;28;20794;-87
2022/07/24 19:45:44;;;;;;;0.10;0.10;;;;;;;;;;5062049;28;20463;-87
2022/07/24 19:48:10;;;;;;;0.20;0.20;;;;;;;;;;5082862;28;20584;-83
2022/07/24 19:50:36;;;;;;;0.10;0.10;;;;;;;;;;5066895;28;21031;-82
2022/07/24 19:53:03;;;;;;;0.10;0.10;;;;;;;;;;5082356;28;20894;-84
2022/07/24 19:55:29;;;;;;;0.10;0.10;;;;;;;;;;5092400;28;20477;-94
2022/07/24 19:57:55;;;;;;;0.10;0.10;;;;;;;;;;5064956;28;20426;-87
2022/07/24 20:00:21;;;;;;;0.10;0.10;;;;;;;;;;5068262;28;20416;-89
2022/07/24 20:02:47;;;;;;;0.00;0.00;;;;;;;;;;5068298;28;20432;-86
2022/07/24 20:05:14;;;;;;;0.05;0.05;;;;;;;;;;5064085;28;20415;-84
2022/07/24 20:07:40;;;;;;;0.10;0.10;;;;;;;;;;5082037;28;20489;-83
2022/07/24 20:10:07;;;;;;;0.10;0.10;;;;;;;;;;5080251;28;20429;-86
2022/07/24 20:12:33;;;;;;;0.00;0.00;;;;;;;;;;5084445;28;20417;-83
2022/07/24 20:14:59;;;;;;;0.10;0.10;;;;;;;;;;5078629;28;20515;-89
2022/07/24 20:17:25;;;;;;;0.10;0.10;;;;;;;;;;5097609;28;20475;-86
2022/07/24 20:19:51;;;;;;;0.10;0.10;;;;;;;;;;5074384;28;20434;-92
2022/07/24 20:22:17;;;;;;;0.10;0.10;;;;;;;;;;5068133;28;20424;-94
2022/07/24 20:24:43;;;;;;;0.10;0.10;;;;;;;;;;5066773;28;20411;-92
2022/07/24 20:27:09;;;;;;;0.10;0.10;;;;;;;;;;5073028;28;20464;-90
2022/07/24 20:29:35;;;;;;;0.08;0.08;;;;;;;;;;5076264;28;20429;-90
2022/07/24 20:32:01;;;;;;;0.10;0.10;;;;;;;;;;5042482;28;20454;-93
2022/07/24 20:34:28;;;;;;;0.10;0.10;;;;;;;;;;5058314;28;20423;-89
2022/07/24 20:36:56;;;;;;;0.10;0.10;;;;;;;;;;5067969;28;20421;-87
2022/07/24 20:39:22;;;;;;;0.10;0.10;;;;;;;;;;5092394;28;20416;-89
2022/07/24 20:41:48;;;;;;;0.10;0.10;;;;;;;;;;5048376;28;20429;-84
2022/07/24 20:44:14;;;;;;;0.10;0.10;;;;;;;;;;5065736;28;20421;-85
2022/07/24 20:46:40;;;;;;;0.10;0.10;;;;;;;;;;5065465;28;20425;-87
2022/07/24 20:49:06;;;;;;;0.10;0.10;;;;;;;;;;5053775;28;20430;-87
2022/07/24 20:51:32;;;;;;;0.03;0.03;;;;;;;;;;5069877;28;20741;-87
2022/07/24 20:53:59;;;;;;;0.10;0.10;;;;;;;;;;5051898;28;20433;-86
2022/07/24 20:56:25;;;;;;;0.10;0.10;;;;;;;;;;5065831;28;20425;-87
2022/07/24 20:58:51;;;;;;;0.10;0.10;;;;;;;;;;5044629;28;20804;-88
2022/07/24 21:01:17;;;;;;;0.10;0.10;;;;;;;;;;5046985;28;20553;-88
2022/07/24 21:03:44;;;;;;;0.10;0.10;;;;;;;;;;5083093;28;20427;-95
2022/07/24 21:06:10;;;;;;;0.10;0.10;;;;;;;;;;5068588;28;20420;-90
2022/07/24 21:08:36;;;;;;;0.10;0.10;;;;;;;;;;5067274;28;20441;-85
2022/07/24 21:11:02;;;;;;;0.00;0.00;;;;;;;;;;5067269;28;20464;-93
2022/07/24 21:13:28;;;;;;;0.10;0.10;;;;;;;;;;5061932;28;20885;-91
2022/07/24 21:15:56;;;;;;;0.10;0.10;;;;;;;;;;5048155;28;20423;-86
2022/07/24 21:18:22;;;;;;;0.10;0.10;;;;;;;;;;5047520;28;20684;-84
2022/07/24 21:20:50;;;;;;;0.20;0.20;;;;;;;;;;5063750;28;20430;-84
2022/07/24 21:23:17;;;;;;;0.10;0.10;;;;;;;;;;5067277;28;20895;-86
2022/07/24 21:25:43;;;;;;;0.10;0.10;;;;;;;;;;5059711;28;21028;-86
2022/07/24 21:28:09;;;;;;;0.20;0.20;;;;;;;;;;5069439;28;20466;-86
2022/07/24 21:30:36;;;;;;;0.10;0.10;;;;;;;;;;5087288;28;20917;-90
2022/07/24 21:33:05;;;;;;;0.10;0.10;;;;;;;;;;5082732;28;20417;-90
2022/07/24 21:35:31;;;;;;;0.10;0.10;;;;;;;;;;5064595;28;20436;-89
2022/07/24 21:37:57;;;;;;;0.10;0.10;;;;;;;;;;5062395;28;20434;-83
2022/07/24 21:40:23;;;;;;;0.10;0.10;;;;;;;;;;5063709;28;20946;-84
2022/07/24 21:42:49;;;;;;;0.10;0.10;;;;;;;;;;5046627;28;20423;-88
2022/07/24 21:45:15;;;;;;;0.10;0.10;;;;;;;;;;5068279;28;20495;-84
2022/07/24 21:47:41;;;;;;;0.10;0.10;;;;;;;;;;5058096;28;20441;-87
2022/07/24 21:50:08;;;;;;;0.03;0.03;;;;;;;;;;5071868;28;20465;-85
2022/07/24 21:52:34;;;;;;;0.10;0.10;;;;;;;;;;5073489;28;20500;-85
2022/07/24 21:55:00;;;;;;;0.00;0.00;;;;;;;;;;5096543;28;20497;-92
2022/07/24 21:57:26;;;;;;;0.30;0.30;;;;;;;;;;5076215;28;20437;-83
2022/07/24 21:59:52;;;;;;;0.10;0.10;;;;;;;;;;5094476;22;20751;-83
2022/07/24 22:02:18;;;;;;;0.10;0.10;;;;;;;;;;5091259;22;20445;-84
2022/07/24 22:04:44;;;;;;;0.20;0.20;;;;;;;;;;5065869;28;20518;-88
2022/07/24 22:07:10;;;;;;;0.10;0.10;;;;;;;;;;5084058;28;20459;-85
2022/07/24 22:09:36;;;;;;;0.10;0.10;;;;;;;;;;5069945;28;20478;-80
2022/07/24 22:12:02;;;;;;;0.10;0.10;;;;;;;;;;5062123;28;20434;-81
2022/07/24 22:14:28;;;;;;;0.10;0.10;;;;;;;;;;5052005;28;20895;-89
2022/07/24 22:16:55;;;;;;;0.10;0.10;;;;;;;;;;5062923;28;20526;-88
2022/07/24 22:19:21;;;;;;;0.13;0.13;;;;;;;;;;5062383;28;20435;-88
2022/07/24 22:21:47;;;;;;;0.10;0.10;;;;;;;;;;5063934;28;20948;-87
2022/07/24 22:24:13;;;;;;;0.10;0.10;;;;;;;;;;5047476;28;20451;-87
2022/07/24 22:26:39;;;;;;;0.10;0.10;;;;;;;;;;5044104;28;20428;-84
2022/07/24 22:29:05;;;;;;;0.28;0.28;;;;;;;;;;5061931;28;20420;-85
2022/07/24 22:31:32;;;;;;;0.10;0.10;;;;;;;;;;5044598;28;20497;-85
2022/07/24 22:33:58;;;;;;;0.20;0.10;;;;;;;;;;5065090;28;20421;-84